Time;durP1;ratioP1;P1;durP2;ratioP2;P2;SDS_P1;SDS_P2;PMS_P1;PMS_P2;Temp;Humidity;BMP_temperature;BMP_pressure;BME280_temperature;BME280_humidity;BME280_pressure;Samples;Min_cycle;Max_cycle;Signal;HPM_P1;HPM_P2
2024/01/11 00:01:22;;;;;;;111.70;55.50;;;;;;;;;;10388550;28;20298;-73
2024/01/11 00:06:22;;;;;;;112.32;58.60;;;;;;;;;;10412538;28;20041;-72
2024/01/11 00:11:23;;;;;;;127.40;60.50;;;;;;;;;;10415908;28;20029;-73
2024/01/11 00:16:23;;;;;;;120.18;58.15;;;;;;;;;;10416206;28;20608;-72
2024/01/11 00:21:23;;;;;;;116.13;58.45;;;;;;;;;;10415736;28;20266;-72
2024/01/11 00:26:23;;;;;;;131.68;55.03;;;;;;;;;;10415785;28;20097;-73
2024/01/11 00:31:24;;;;;;;115.20;64.32;;;;;;;;;;10415367;28;20084;-73
2024/01/11 00:36:24;;;;;;;118.15;55.28;;;;;;;;;;10416155;28;20025;-73
2024/01/11 00:41:25;;;;;;;108.05;52.28;;;;;;;;;;10415212;28;20048;-73
2024/01/11 00:46:25;;;;;;;111.18;55.25;;;;;;;;;;10415185;28;20013;-72
2024/01/11 00:51:25;;;;;;;109.50;57.95;;;;;;;;;;10415143;28;20327;-73
2024/01/11 00:56:26;;;;;;;103.32;53.70;;;;;;;;;;10415468;28;20040;-74
2024/01/11 01:01:26;;;;;;;108.30;54.08;;;;;;;;;;10396156;28;20029;-73
2024/01/11 01:06:27;;;;;;;110.90;62.58;;;;;;;;;;10411298;28;20139;-73
2024/01/11 01:11:27;;;;;;;132.00;59.78;;;;;;;;;;10415347;28;20088;-73
2024/01/11 01:16:27;;;;;;;102.78;52.60;;;;;;;;;;10407485;28;20322;-73
2024/01/11 01:21:28;;;;;;;80.65;36.47;;;;;;;;;;10396976;28;20049;-73
2024/01/11 01:26:28;;;;;;;48.95;25.35;;;;;;;;;;10420597;28;20076;-73
2024/01/11 01:31:28;;;;;;;48.05;25.67;;;;;;;;;;10422480;28;20017;-73
2024/01/11 01:36:28;;;;;;;40.47;22.25;;;;;;;;;;10404705;28;20025;-73
2024/01/11 01:41:29;;;;;;;38.83;19.90;;;;;;;;;;10421833;28;20322;-72
2024/01/11 01:46:29;;;;;;;43.50;20.77;;;;;;;;;;10421916;28;20028;-72
2024/01/11 01:51:30;;;;;;;54.67;29.52;;;;;;;;;;10421914;28;20021;-72
2024/01/11 01:56:31;;;;;;;51.42;30.02;;;;;;;;;;10422937;28;20029;-72
2024/01/11 02:01:32;;;;;;;46.17;20.67;;;;;;;;;;10419997;28;20249;-72
2024/01/11 02:06:33;;;;;;;39.83;21.17;;;;;;;;;;10421311;28;20047;-72
2024/01/11 02:11:33;;;;;;;37.42;17.77;;;;;;;;;;10415151;28;20217;-73
2024/01/11 02:16:33;;;;;;;33.78;22.27;;;;;;;;;;10415913;28;20039;-73
2024/01/11 02:21:34;;;;;;;32.17;17.95;;;;;;;;;;10410675;28;20456;-73
2024/01/11 02:26:34;;;;;;;44.17;24.60;;;;;;;;;;10419617;28;20357;-72
2024/01/11 02:31:34;;;;;;;32.28;19.75;;;;;;;;;;10397780;28;20264;-73
2024/01/11 02:36:35;;;;;;;34.00;22.30;;;;;;;;;;10418448;28;20029;-73
2024/01/11 02:41:36;;;;;;;46.33;26.40;;;;;;;;;;10408317;28;20059;-72
2024/01/11 02:46:36;;;;;;;59.75;31.02;;;;;;;;;;10419096;28;20085;-73
2024/01/11 02:51:36;;;;;;;66.93;31.95;;;;;;;;;;10415880;28;20052;-74
2024/01/11 02:56:36;;;;;;;58.30;35.38;;;;;;;;;;10419889;28;20021;-73
2024/01/11 03:01:36;;;;;;;39.25;24.52;;;;;;;;;;10418170;28;20061;-73
2024/01/11 03:06:37;;;;;;;39.55;22.38;;;;;;;;;;10420421;28;20188;-72
2024/01/11 03:11:37;;;;;;;45.60;24.85;;;;;;;;;;10409455;28;20102;-72
2024/01/11 03:16:39;;;;;;;41.80;25.00;;;;;;;;;;10407310;28;20034;-73
2024/01/11 03:21:43;;;;;;;24.25;17.25;;;;;;;;;;10416968;28;20487;-73
2024/01/11 03:26:43;;;;;;;18.42;13.43;;;;;;;;;;10416640;28;20032;-72
2024/01/11 03:31:44;;;;;;;17.35;13.65;;;;;;;;;;10406023;28;20093;-72
2024/01/11 03:36:44;;;;;;;16.80;13.70;;;;;;;;;;10417476;28;20024;-72
2024/01/11 03:41:45;;;;;;;20.35;14.57;;;;;;;;;;10410281;28;20033;-73
2024/01/11 03:46:45;;;;;;;24.83;13.20;;;;;;;;;;10394606;28;20033;-72
2024/01/11 03:51:45;;;;;;;20.20;15.23;;;;;;;;;;10407378;28;20204;-72
2024/01/11 03:56:45;;;;;;;20.42;12.52;;;;;;;;;;10396503;28;20038;-72
2024/01/11 04:01:46;;;;;;;18.95;12.23;;;;;;;;;;10407462;28;20022;-72
2024/01/11 04:06:46;;;;;;;29.80;21.27;;;;;;;;;;10412920;28;20024;-72
2024/01/11 04:11:46;;;;;;;33.42;21.80;;;;;;;;;;10397908;28;20021;-72
2024/01/11 04:16:46;;;;;;;42.30;25.97;;;;;;;;;;10411129;28;20210;-72
2024/01/11 04:21:47;;;;;;;58.65;33.38;;;;;;;;;;10407504;28;20029;-73
2024/01/11 04:26:47;;;;;;;67.35;35.70;;;;;;;;;;10399151;28;20071;-72
2024/01/11 04:31:47;;;;;;;53.38;27.15;;;;;;;;;;10417215;28;20476;-72
2024/01/11 04:36:47;;;;;;;52.60;26.48;;;;;;;;;;10399601;28;20128;-71
2024/01/11 04:41:47;;;;;;;41.85;28.65;;;;;;;;;;10416078;28;20021;-72
2024/01/11 04:46:48;;;;;;;50.53;33.83;;;;;;;;;;10416126;28;20071;-73
2024/01/11 04:51:48;;;;;;;50.17;26.80;;;;;;;;;;10415793;28;20085;-72
2024/01/11 04:56:49;;;;;;;54.28;28.45;;;;;;;;;;10414166;28;20111;-72
2024/01/11 05:01:56;;;;;;;44.50;27.40;;;;;;;;;;10421007;28;20024;-71
2024/01/11 05:06:56;;;;;;;61.35;31.15;;;;;;;;;;10402107;28;20022;-74
2024/01/11 05:11:56;;;;;;;46.45;27.73;;;;;;;;;;10422889;28;20021;-73
2024/01/11 05:16:57;;;;;;;55.13;29.10;;;;;;;;;;10423805;28;20047;-73
2024/01/11 05:21:58;;;;;;;50.27;26.20;;;;;;;;;;10423669;28;20235;-74
2024/01/11 05:26:59;;;;;;;47.92;29.05;;;;;;;;;;10403985;28;20052;-72
2024/01/11 05:31:59;;;;;;;55.42;27.15;;;;;;;;;;10422017;28;20025;-73
2024/01/11 05:36:59;;;;;;;54.85;30.77;;;;;;;;;;10420749;28;20049;-76
2024/01/11 05:41:59;;;;;;;41.15;24.27;;;;;;;;;;10420900;28;20299;-76
2024/01/11 05:47:00;;;;;;;53.13;26.40;;;;;;;;;;10423228;28;20072;-77
2024/01/11 05:52:00;;;;;;;39.20;25.95;;;;;;;;;;10403424;28;20058;-77
2024/01/11 05:57:00;;;;;;;46.05;28.17;;;;;;;;;;10401709;28;20032;-76
2024/01/11 06:02:01;;;;;;;49.75;28.77;;;;;;;;;;10421726;28;20029;-76
2024/01/11 06:07:01;;;;;;;48.78;34.22;;;;;;;;;;10421793;28;20018;-76
2024/01/11 06:12:02;;;;;;;52.70;34.00;;;;;;;;;;10421407;28;20017;-77
2024/01/11 06:17:02;;;;;;;55.85;26.75;;;;;;;;;;10421187;28;20031;-77
2024/01/11 06:22:03;;;;;;;49.47;26.77;;;;;;;;;;10418281;28;20064;-77
2024/01/11 06:27:03;;;;;;;47.97;26.95;;;;;;;;;;10400336;28;20025;-77
2024/01/11 06:32:03;;;;;;;51.33;25.63;;;;;;;;;;10417926;28;20048;-76
2024/01/11 06:37:03;;;;;;;46.90;25.80;;;;;;;;;;10419191;28;20039;-76
2024/01/11 06:42:04;;;;;;;37.90;22.85;;;;;;;;;;10420857;28;20308;-76
2024/01/11 06:47:05;;;;;;;37.40;18.88;;;;;;;;;;10427034;28;20299;-77
2024/01/11 06:52:05;;;;;;;38.25;23.23;;;;;;;;;;10420385;28;20021;-77
2024/01/11 06:57:06;;;;;;;37.00;18.40;;;;;;;;;;10420014;28;20112;-77
2024/01/11 07:02:06;;;;;;;41.40;23.05;;;;;;;;;;10404842;28;20070;-76
2024/01/11 07:07:06;;;;;;;35.33;22.50;;;;;;;;;;10408385;28;20020;-76
2024/01/11 07:12:06;;;;;;;35.78;21.13;;;;;;;;;;10407966;28;20021;-76
2024/01/11 07:17:07;;;;;;;45.30;22.17;;;;;;;;;;10385953;28;20786;-75
2024/01/11 07:22:07;;;;;;;45.03;20.85;;;;;;;;;;10414602;28;20052;-77
2024/01/11 07:27:07;;;;;;;38.00;23.55;;;;;;;;;;10408610;28;20391;-75
2024/01/11 07:32:07;;;;;;;44.97;23.15;;;;;;;;;;10400951;28;20033;-78
2024/01/11 07:37:08;;;;;;;42.20;25.87;;;;;;;;;;10417455;28;20021;-76
2024/01/11 07:42:08;;;;;;;38.73;20.83;;;;;;;;;;10416780;28;20017;-76
2024/01/11 07:47:08;;;;;;;50.53;26.08;;;;;;;;;;10412440;28;20017;-76
2024/01/11 07:52:09;;;;;;;56.40;29.70;;;;;;;;;;10417133;28;20217;-79
2024/01/11 07:57:09;;;;;;;68.30;35.15;;;;;;;;;;10400497;28;20026;-77
2024/01/11 08:02:10;;;;;;;95.57;48.55;;;;;;;;;;10408522;28;20184;-77
2024/01/11 08:07:10;;;;;;;110.73;54.37;;;;;;;;;;10416376;28;20206;-75
2024/01/11 08:12:11;;;;;;;112.53;57.72;;;;;;;;;;10416549;28;20175;-77
2024/01/11 08:17:12;;;;;;;100.05;54.45;;;;;;;;;;10398411;28;20031;-77
2024/01/11 08:22:12;;;;;;;105.75;55.38;;;;;;;;;;10415893;28;20048;-77
2024/01/11 08:27:13;;;;;;;94.50;48.83;;;;;;;;;;10415988;28;20055;-77
2024/01/11 08:32:13;;;;;;;97.95;51.85;;;;;;;;;;10415980;28;20322;-77
2024/01/11 08:37:14;;;;;;;95.78;49.13;;;;;;;;;;10393513;28;20052;-76
2024/01/11 08:42:15;;;;;;;99.70;49.70;;;;;;;;;;10413809;28;20035;-77
2024/01/11 08:47:15;;;;;;;97.28;48.42;;;;;;;;;;10415848;28;20024;-75
2024/01/11 08:52:15;;;;;;;95.32;48.92;;;;;;;;;;10415340;28;20052;-76
2024/01/11 08:57:17;;;;;;;95.60;49.20;;;;;;;;;;10409852;28;20028;-76
2024/01/11 09:02:17;;;;;;;106.30;49.10;;;;;;;;;;10413738;28;20044;-76
2024/01/11 09:07:17;;;;;;;100.38;50.97;;;;;;;;;;10415073;28;20029;-76
2024/01/11 09:12:17;;;;;;;107.55;51.15;;;;;;;;;;10397460;28;20048;-75
2024/01/11 09:17:17;;;;;;;91.93;48.97;;;;;;;;;;10415083;28;20044;-75
2024/01/11 09:22:18;;;;;;;90.30;45.38;;;;;;;;;;10412022;28;20049;-75
2024/01/11 09:27:18;;;;;;;107.28;47.95;;;;;;;;;;10383057;28;20094;-76
2024/01/11 09:32:18;;;;;;;89.40;44.65;;;;;;;;;;10391070;28;20079;-75
2024/01/11 09:37:18;;;;;;;88.13;42.30;;;;;;;;;;10381801;28;20242;-76
2024/01/11 09:42:19;;;;;;;93.15;46.13;;;;;;;;;;10410009;28;20307;-75
2024/01/11 09:47:19;;;;;;;88.25;43.58;;;;;;;;;;10398357;28;20044;-76
2024/01/11 09:52:20;;;;;;;94.80;42.90;;;;;;;;;;10413537;28;20105;-75
2024/01/11 09:57:27;;;;;;;87.30;43.15;;;;;;;;;;10413022;28;20037;-75
2024/01/11 10:02:27;;;;;;;93.00;40.73;;;;;;;;;;10404927;28;20026;-75
2024/01/11 10:07:28;;;;;;;85.67;37.97;;;;;;;;;;10408200;28;20018;-76
2024/01/11 10:12:28;;;;;;;76.90;37.17;;;;;;;;;;10398725;28;20037;-76
2024/01/11 10:17:28;;;;;;;66.87;35.87;;;;;;;;;;10418503;28;20021;-76
2024/01/11 10:22:29;;;;;;;76.20;33.05;;;;;;;;;;10420350;28;20307;-76
2024/01/11 10:27:29;;;;;;;61.22;30.77;;;;;;;;;;10419868;28;20307;-75
2024/01/11 10:32:29;;;;;;;64.00;47.60;;;;;;;;;;10420778;28;20253;-76
2024/01/11 10:37:30;;;;;;;59.95;30.33;;;;;;;;;;10419840;28;20025;-76
2024/01/11 10:42:31;;;;;;;61.72;41.72;;;;;;;;;;10419373;28;20033;-75
2024/01/11 10:47:31;;;;;;;50.58;26.30;;;;;;;;;;10401969;28;20018;-76
2024/01/11 10:52:36;;;;;;;59.90;26.60;;;;;;;;;;10419315;28;20017;-76
2024/01/11 10:57:36;;;;;;;58.13;26.85;;;;;;;;;;10417986;28;20051;-76
2024/01/11 11:02:37;;;;;;;46.70;23.85;;;;;;;;;;10419368;28;20231;-78
2024/01/11 11:07:38;;;;;;;52.33;24.20;;;;;;;;;;10418874;28;20045;-78
2024/01/11 11:12:40;;;;;;;62.95;26.90;;;;;;;;;;10418524;28;20318;-76
2024/01/11 11:17:43;;;;;;;60.72;28.30;;;;;;;;;;10408472;28;20064;-75
2024/01/11 11:22:48;;;;;;;95.78;62.00;;;;;;;;;;10382428;28;20378;-75
2024/01/11 11:27:48;;;;;;;818.47;722.20;;;;;;;;;;10416444;28;20029;-76
2024/01/11 11:32:48;;;;;;;858.70;719.45;;;;;;;;;;10394423;28;20025;-74
2024/01/11 11:37:50;;;;;;;893.22;790.42;;;;;;;;;;10401665;28;20021;-75
2024/01/11 11:42:50;;;;;;;928.92;827.72;;;;;;;;;;10418107;28;20029;-76
2024/01/11 11:47:51;;;;;;;269.53;235.63;;;;;;;;;;10418050;28;20044;-75
2024/01/11 11:52:57;;;;;;;900.60;806.22;;;;;;;;;;10417679;28;20029;-75
2024/01/11 11:57:58;;;;;;;998.40;893.33;;;;;;;;;;10416341;28;20021;-76
2024/01/11 12:02:58;;;;;;;940.13;839.42;;;;;;;;;;10417525;28;20020;-75
2024/01/11 12:07:58;;;;;;;849.77;644.50;;;;;;;;;;10416777;28;20013;-75
2024/01/11 12:13:00;;;;;;;81.60;12.90;;;;;;;;;;10417358;28;20256;-76
2024/01/11 12:18:00;;;;;;;;;;;;;;;;;;10417570;28;19907;-77
2024/01/11 12:23:02;;;;;;;;;;;;;;;;;;10412061;28;20103;-76
2024/01/11 12:28:02;;;;;;;66.97;32.15;;;;;;;;;;10412712;28;20452;-75
2024/01/11 12:33:03;;;;;;;55.20;26.63;;;;;;;;;;10416228;28;20282;-76
2024/01/11 12:38:07;;;;;;;49.17;25.60;;;;;;;;;;10415518;28;20198;-77
2024/01/11 12:43:07;;;;;;;53.88;24.90;;;;;;;;;;10415574;28;20100;-75
2024/01/11 12:48:08;;;;;;;39.75;20.98;;;;;;;;;;10414986;28;20017;-75
2024/01/11 12:53:18;;;;;;;42.90;20.95;;;;;;;;;;10415282;28;20085;-75
2024/01/11 12:58:21;;;;;;;42.67;20.73;;;;;;;;;;10398310;28;20056;-75
2024/01/11 13:03:21;;;;;;;42.33;21.95;;;;;;;;;;10414910;28;20080;-75
2024/01/11 13:08:21;;;;;;;51.27;25.83;;;;;;;;;;10414993;28;20040;-75
2024/01/11 13:13:22;;;;;;;46.13;24.08;;;;;;;;;;10414939;28;20025;-76
2024/01/11 13:18:22;;;;;;;45.03;23.93;;;;;;;;;;10396678;28;20057;-75
2024/01/11 13:23:24;;;;;;;35.10;21.98;;;;;;;;;;10421341;28;20040;-76
2024/01/11 13:28:24;;;;;;;32.55;18.33;;;;;;;;;;10408550;28;20080;-75
2024/01/11 13:33:24;;;;;;;40.50;21.98;;;;;;;;;;10422179;28;20014;-76
2024/01/11 13:38:25;;;;;;;51.67;24.02;;;;;;;;;;10422407;28;20025;-75
2024/01/11 13:43:25;;;;;;;64.47;31.35;;;;;;;;;;10422337;28;20314;-75
2024/01/11 13:48:25;;;;;;;52.20;28.63;;;;;;;;;;10421778;28;20184;-76
2024/01/11 13:53:25;;;;;;;68.73;34.37;;;;;;;;;;10421641;28;20311;-77
2024/01/11 13:58:26;;;;;;;69.45;34.63;;;;;;;;;;10421747;28;20039;-74
2024/01/11 14:03:26;;;;;;;44.80;19.77;;;;;;;;;;10421062;28;20037;-76
2024/01/11 14:08:26;;;;;;;12.30;6.00;;;;;;;;;;10421077;28;20069;-76
2024/01/11 14:13:26;;;;;;;13.23;6.20;;;;;;;;;;10421127;28;20045;-76
2024/01/11 14:18:27;;;;;;;16.35;6.28;;;;;;;;;;10420100;28;20223;-74
2024/01/11 14:23:27;;;;;;;12.38;6.10;;;;;;;;;;10418647;28;20058;-76
2024/01/11 14:28:27;;;;;;;12.95;6.38;;;;;;;;;;10408980;28;20307;-76
2024/01/11 14:33:28;;;;;;;10.20;6.28;;;;;;;;;;10419593;28;20324;-75
2024/01/11 14:38:29;;;;;;;13.02;6.72;;;;;;;;;;10408894;28;20366;-73
2024/01/11 14:43:29;;;;;;;13.03;6.23;;;;;;;;;;10388978;28;20045;-76
2024/01/11 14:48:30;;;;;;;13.38;7.25;;;;;;;;;;10405783;28;20017;-75
2024/01/11 14:53:30;;;;;;;12.82;7.10;;;;;;;;;;10418340;28;20033;-74
2024/01/11 14:58:31;;;;;;;18.13;7.47;;;;;;;;;;10419247;28;20299;-75
2024/01/11 15:03:31;;;;;;;12.57;7.45;;;;;;;;;;10418915;28;20541;-74
2024/01/11 15:08:31;;;;;;;18.80;7.38;;;;;;;;;;10418842;28;20307;-74
2024/01/11 15:13:33;;;;;;;20.85;9.65;;;;;;;;;;10400539;28;20017;-75
2024/01/11 15:18:33;;;;;;;23.77;10.18;;;;;;;;;;10418210;28;20034;-74
2024/01/11 15:23:34;;;;;;;29.08;12.40;;;;;;;;;;10418557;28;20036;-74
2024/01/11 15:28:35;;;;;;;25.25;12.40;;;;;;;;;;10417820;28;20017;-74
2024/01/11 15:33:35;;;;;;;23.30;13.13;;;;;;;;;;10417869;28;20021;-75
2024/01/11 15:38:35;;;;;;;28.73;12.15;;;;;;;;;;10417839;28;20016;-73
2024/01/11 15:43:36;;;;;;;24.00;12.65;;;;;;;;;;10416733;28;20014;-74
2024/01/11 15:48:36;;;;;;;22.98;11.65;;;;;;;;;;10413397;28;20259;-74
2024/01/11 15:53:37;;;;;;;30.52;13.68;;;;;;;;;;10411832;28;20021;-75
2024/01/11 15:58:39;;;;;;;24.88;12.80;;;;;;;;;;10406564;28;20044;-76
2024/01/11 16:03:39;;;;;;;26.60;14.38;;;;;;;;;;10409116;28;20288;-75
2024/01/11 16:08:39;;;;;;;23.98;15.93;;;;;;;;;;10417216;28;20068;-75
2024/01/11 16:13:40;;;;;;;25.90;13.35;;;;;;;;;;10400807;28;20327;-76
2024/01/11 16:18:41;;;;;;;23.08;13.07;;;;;;;;;;10416027;28;20056;-74
2024/01/11 16:23:41;;;;;;;30.20;15.65;;;;;;;;;;10415893;28;20124;-75
2024/01/11 16:28:41;;;;;;;30.45;15.82;;;;;;;;;;10416315;28;20108;-74
2024/01/11 16:33:41;;;;;;;29.33;13.98;;;;;;;;;;10415796;28;20045;-74
2024/01/11 16:38:42;;;;;;;34.58;14.48;;;;;;;;;;10416401;28;20080;-75
2024/01/11 16:43:45;;;;;;;26.08;14.35;;;;;;;;;;10415793;28;20054;-74
2024/01/11 16:48:45;;;;;;;25.23;13.50;;;;;;;;;;10415745;28;20044;-75
2024/01/11 16:53:46;;;;;;;34.73;14.83;;;;;;;;;;10416511;28;20021;-75
2024/01/11 16:58:46;;;;;;;24.38;13.52;;;;;;;;;;10423661;28;20093;-76
2024/01/11 17:03:46;;;;;;;25.88;14.60;;;;;;;;;;10423188;28;20244;-75
2024/01/11 17:08:47;;;;;;;24.88;13.63;;;;;;;;;;10423836;28;20018;-74
2024/01/11 17:13:47;;;;;;;24.63;14.75;;;;;;;;;;10421430;28;20327;-75
2024/01/11 17:18:47;;;;;;;25.17;12.30;;;;;;;;;;10405333;28;20172;-74
2024/01/11 17:23:47;;;;;;;17.48;11.90;;;;;;;;;;10422651;28;20211;-74
2024/01/11 17:28:47;;;;;;;21.92;11.45;;;;;;;;;;10422618;28;20467;-73
2024/01/11 17:33:48;;;;;;;22.58;11.82;;;;;;;;;;10422071;28;20053;-73
2024/01/11 17:38:48;;;;;;;20.52;11.30;;;;;;;;;;10421527;28;20022;-73
2024/01/11 17:43:48;;;;;;;25.88;13.30;;;;;;;;;;10421626;28;20017;-75
2024/01/11 17:48:49;;;;;;;22.48;12.68;;;;;;;;;;10421404;28;20203;-76
2024/01/11 17:53:51;;;;;;;27.60;13.85;;;;;;;;;;10421148;28;20017;-74
2024/01/11 17:58:52;;;;;;;35.85;11.13;;;;;;;;;;10420932;28;20021;-74
2024/01/11 18:03:52;;;;;;;22.73;10.75;;;;;;;;;;10420326;28;20021;-74
2024/01/11 18:08:55;;;;;;;22.33;11.73;;;;;;;;;;10405090;28;20025;-85
2024/01/11 18:13:56;;;;;;;23.45;11.80;;;;;;;;;;10396022;28;20076;-79
2024/01/11 18:18:56;;;;;;;23.02;9.82;;;;;;;;;;10400865;28;20156;-75
2024/01/11 18:23:56;;;;;;;26.52;11.60;;;;;;;;;;10388957;28;20021;-79
2024/01/11 18:28:56;;;;;;;21.03;11.60;;;;;;;;;;10387169;28;20085;-79
2024/01/11 18:33:57;;;;;;;23.92;10.77;;;;;;;;;;10389486;28;20009;-79
2024/01/11 18:38:58;;;;;;;21.17;10.20;;;;;;;;;;10393109;28;20016;-77
2024/01/11 18:43:58;;;;;;;15.77;8.07;;;;;;;;;;10391781;28;20017;-79
2024/01/11 18:48:59;;;;;;;22.38;11.57;;;;;;;;;;10389084;28;20192;-81
2024/01/11 18:53:59;;;;;;;25.35;12.10;;;;;;;;;;10379174;28;20040;-81
2024/01/11 18:58:59;;;;;;;21.73;11.27;;;;;;;;;;10386640;28;20014;-80
2024/01/11 19:04:01;;;;;;;28.65;12.88;;;;;;;;;;10389269;28;20524;-84
2024/01/11 19:09:01;;;;;;;26.60;12.95;;;;;;;;;;10374616;28;20099;-77
2024/01/11 19:14:01;;;;;;;26.10;12.23;;;;;;;;;;10392421;28;20031;-78
2024/01/11 19:19:03;;;;;;;25.77;12.88;;;;;;;;;;10383435;28;20274;-78
2024/01/11 19:24:03;;;;;;;31.50;15.00;;;;;;;;;;10367854;28;20036;-77
2024/01/11 19:29:03;;;;;;;22.77;13.67;;;;;;;;;;10392919;28;20317;-79
2024/01/11 19:34:03;;;;;;;27.80;13.15;;;;;;;;;;10383519;28;20322;-78
2024/01/11 19:39:04;;;;;;;27.30;12.80;;;;;;;;;;10390645;28;20020;-78
2024/01/11 19:44:27;;;;;;;21.63;12.23;;;;;;;;;;10587778;27;20720;-78
2024/01/11 19:49:27;;;;;;;24.17;13.48;;;;;;;;;;10564133;28;21892;-78
2024/01/11 19:54:27;;;;;;;20.17;13.63;;;;;;;;;;10563360;28;20016;-78
2024/01/11 19:59:27;;;;;;;26.05;14.73;;;;;;;;;;10564160;28;20027;-77
2024/01/11 20:04:32;;;;;;;24.23;14.05;;;;;;;;;;10563653;28;20023;-77
2024/01/11 20:09:32;;;;;;;21.38;12.13;;;;;;;;;;10562078;28;20024;-78
2024/01/11 20:14:32;;;;;;;31.70;13.60;;;;;;;;;;10562343;28;20043;-78
2024/01/11 20:19:33;;;;;;;30.85;13.25;;;;;;;;;;10563804;28;20069;-78
2024/01/11 20:24:33;;;;;;;26.45;14.30;;;;;;;;;;10564676;28;20065;-76
2024/01/11 20:29:33;;;;;;;27.17;14.82;;;;;;;;;;10563370;28;20356;-78
2024/01/11 20:34:33;;;;;;;23.17;12.55;;;;;;;;;;10562771;28;20018;-77
2024/01/11 20:39:34;;;;;;;21.00;12.35;;;;;;;;;;10561395;28;20028;-77
2024/01/11 20:44:37;;;;;;;26.77;14.13;;;;;;;;;;10563387;28;20019;-76
2024/01/11 20:49:37;;;;;;;25.65;13.05;;;;;;;;;;10563442;28;20016;-77
2024/01/11 20:54:38;;;;;;;22.23;14.02;;;;;;;;;;10542348;28;20098;-81
2024/01/11 20:59:40;;;;;;;24.27;12.52;;;;;;;;;;10535947;28;20058;-88
2024/01/11 21:04:40;;;;;;;25.55;13.75;;;;;;;;;;10520308;28;20023;-75
2024/01/11 21:09:41;;;;;;;40.42;15.82;;;;;;;;;;10533042;28;20091;-74
2024/01/11 21:14:41;;;;;;;26.88;15.57;;;;;;;;;;10533095;28;20079;-75
2024/01/11 21:19:41;;;;;;;26.60;13.07;;;;;;;;;;10532860;28;20027;-76
2024/01/11 21:24:41;;;;;;;26.20;13.40;;;;;;;;;;10533306;28;20062;-74
2024/01/11 21:29:41;;;;;;;32.45;15.85;;;;;;;;;;10520280;28;20053;-75
2024/01/11 21:34:42;;;;;;;30.90;15.48;;;;;;;;;;10542928;28;20091;-76
2024/01/11 21:39:42;;;;;;;27.48;15.32;;;;;;;;;;10522302;28;20274;-77
2024/01/11 21:44:42;;;;;;;32.15;16.00;;;;;;;;;;10543699;28;20062;-77
2024/01/11 21:49:42;;;;;;;35.60;16.42;;;;;;;;;;10522466;28;20019;-77
2024/01/11 21:54:43;;;;;;;23.75;13.77;;;;;;;;;;10523935;28;20035;-78
2024/01/11 21:59:43;;;;;;;22.33;14.32;;;;;;;;;;10540961;28;20028;-77
2024/01/11 22:04:43;;;;;;;28.50;16.20;;;;;;;;;;10540508;28;20179;-76
2024/01/11 22:09:44;;;;;;;35.50;17.40;;;;;;;;;;10540716;28;20024;-77
2024/01/11 22:14:45;;;;;;;29.63;15.15;;;;;;;;;;10525243;28;20100;-76
2024/01/11 22:19:47;;;;;;;25.08;15.35;;;;;;;;;;10509092;28;20226;-77
2024/01/11 22:24:47;;;;;;;34.63;16.50;;;;;;;;;;10543388;28;20377;-77
2024/01/11 22:29:47;;;;;;;29.55;15.57;;;;;;;;;;10526963;28;20090;-76
2024/01/11 22:34:48;;;;;;;30.75;17.13;;;;;;;;;;10526021;28;20240;-77
2024/01/11 22:39:48;;;;;;;29.92;16.27;;;;;;;;;;10542434;28;20051;-77
2024/01/11 22:44:48;;;;;;;28.20;14.48;;;;;;;;;;10542641;28;20012;-77
2024/01/11 22:49:48;;;;;;;43.10;16.88;;;;;;;;;;10542247;28;20065;-76
2024/01/11 22:54:49;;;;;;;29.73;15.60;;;;;;;;;;10528273;28;20024;-77
2024/01/11 22:59:49;;;;;;;27.95;16.33;;;;;;;;;;10524159;28;20210;-76
2024/01/11 23:04:50;;;;;;;30.05;17.30;;;;;;;;;;10541471;28;20053;-76
2024/01/11 23:09:50;;;;;;;41.97;18.83;;;;;;;;;;10541283;28;20091;-76
2024/01/11 23:14:50;;;;;;;33.35;20.55;;;;;;;;;;10541333;28;20347;-77
2024/01/11 23:19:51;;;;;;;36.88;19.73;;;;;;;;;;10541458;28;20016;-76
2024/01/11 23:24:51;;;;;;;35.25;19.40;;;;;;;;;;10540768;28;20023;-76
2024/01/11 23:29:51;;;;;;;45.55;21.23;;;;;;;;;;10522890;28;20206;-77
2024/01/11 23:34:52;;;;;;;72.47;42.80;;;;;;;;;;10540885;28;20087;-76
2024/01/11 23:39:52;;;;;;;39.45;22.88;;;;;;;;;;10541517;28;20294;-78
2024/01/11 23:44:52;;;;;;;48.58;25.10;;;;;;;;;;10540575;28;20214;-75
2024/01/11 23:49:52;;;;;;;37.78;20.67;;;;;;;;;;10522851;28;20092;-76
2024/01/11 23:54:53;;;;;;;39.92;20.77;;;;;;;;;;10522478;28;20372;-76
2024/01/11 23:59:53;;;;;;;42.65;25.67;;;;;;;;;;10540135;28;20027;-76
